Time;durP1;ratioP1;P1;durP2;ratioP2;P2;SDS_P1;SDS_P2;PMS_P1;PMS_P2;Temp;Humidity;BMP_temperature;BMP_pressure;BME280_temperature;BME280_humidity;BME280_pressure;Samples;Min_cycle;Max_cycle;Signal;HPM_P1;HPM_P2
2022/03/09 00:01:23;;;;;;;12.00;10.63;;;8.80;99.90;;;;;;5073297;28;20210;-74
2022/03/09 00:03:52;;;;;;;10.67;9.47;;;8.90;99.90;;;;;;5073128;28;20233;-76
2022/03/09 00:06:19;;;;;;;11.40;9.73;;;8.90;99.90;;;;;;5073347;28;20260;-74
2022/03/09 00:08:46;;;;;;;11.73;10.63;;;8.80;99.90;;;;;;5072511;28;20248;-74
2022/03/09 00:11:13;;;;;;;10.87;9.77;;;8.90;99.90;;;;;;5072969;28;20206;-76
2022/03/09 00:13:40;;;;;;;13.60;10.57;;;8.80;99.90;;;;;;5072781;28;20202;-75
2022/03/09 00:16:07;;;;;;;9.63;8.03;;;8.80;99.90;;;;;;5073584;28;20198;-74
2022/03/09 00:18:34;;;;;;;9.97;7.27;;;8.70;99.90;;;;;;5073396;28;20301;-74
2022/03/09 00:21:02;;;;;;;11.47;7.97;;;8.70;99.90;;;;;;5072834;28;20202;-74
2022/03/09 00:23:29;;;;;;;8.43;7.30;;;8.70;10.80;;;;;;5072943;28;20620;-76
2022/03/09 00:25:56;;;;;;;10.27;7.57;;;8.90;93.50;;;;;;5072187;28;20205;-75
2022/03/09 00:28:23;;;;;;;9.03;7.43;;;8.90;1.00;;;;;;5072874;28;20637;-74
2022/03/09 00:30:50;;;;;;;8.90;7.20;;;8.80;1.00;;;;;;5072502;28;20739;-74
2022/03/09 00:33:17;;;;;;;8.23;6.80;;;8.90;1.00;;;;;;5072912;28;20221;-75
2022/03/09 00:35:45;;;;;;;8.47;7.00;;;8.90;1.00;;;;;;5072413;28;20276;-75
2022/03/09 00:38:13;;;;;;;9.00;8.00;;;8.90;1.00;;;;;;5072606;28;20212;-75
2022/03/09 00:40:40;;;;;;;10.50;8.07;;;8.90;1.00;;;;;;5072042;28;20314;-75
2022/03/09 00:43:07;;;;;;;10.10;9.10;;;8.80;1.00;;;;;;5072821;28;20206;-74
2022/03/09 00:45:34;;;;;;;9.53;8.53;;;8.90;1.00;;;;;;5073089;28;20198;-75
2022/03/09 00:48:01;;;;;;;10.30;7.90;;;8.90;1.00;;;;;;5072234;28;20632;-75
2022/03/09 00:50:28;;;;;;;9.87;8.97;;;8.90;1.00;;;;;;5072408;28;21099;-75
2022/03/09 00:52:55;;;;;;;13.70;8.87;;;8.90;1.00;;;;;;5071961;28;20623;-75
2022/03/09 00:55:23;;;;;;;11.27;8.33;;;8.90;1.00;;;;;;5072322;28;20203;-75
2022/03/09 00:57:50;;;;;;;13.07;9.50;;;8.80;1.00;;;;;;5072228;28;20206;-75
2022/03/09 01:00:18;;;;;;;9.60;7.43;;;8.80;1.30;;;;;;5072429;28;20233;-76
2022/03/09 01:02:46;;;;;;;9.13;8.07;;;8.80;1.00;;;;;;5071781;28;20209;-75
2022/03/09 01:05:15;;;;;;;9.03;7.00;;;8.90;1.00;;;;;;5072123;28;20563;-76
2022/03/09 01:07:42;;;;;;;7.13;6.30;;;8.80;1.00;;;;;;5071512;28;20252;-75
2022/03/09 01:10:10;;;;;;;9.57;6.40;;;8.90;1.00;;;;;;5072371;28;20202;-75
2022/03/09 01:12:39;;;;;;;6.60;5.90;;;8.90;1.00;;;;;;5072455;28;20198;-76
2022/03/09 01:15:07;;;;;;;7.07;6.47;;;8.90;1.00;;;;;;5072383;28;20198;-74
2022/03/09 01:17:34;;;;;;;7.40;5.80;;;8.70;1.00;;;;;;5072110;28;20616;-75
2022/03/09 01:20:01;;;;;;;7.70;5.57;;;8.60;1.00;;;;;;5071049;28;20291;-75
2022/03/09 01:22:28;;;;;;;4.70;3.90;;;8.60;1.00;;;;;;5071161;28;20207;-74
2022/03/09 01:24:55;;;;;;;4.87;3.73;;;8.60;1.00;;;;;;5071595;28;20248;-75
2022/03/09 01:27:22;;;;;;;4.33;3.93;;;8.50;1.00;;;;;;5071509;28;20259;-75
2022/03/09 01:29:51;;;;;;;3.63;2.97;;;8.50;1.00;;;;;;5071327;28;20682;-75
2022/03/09 01:32:19;;;;;;;4.27;3.83;;;8.40;1.00;;;;;;5071791;28;20206;-74
2022/03/09 01:34:46;;;;;;;3.33;3.03;;;8.40;1.00;;;;;;5071520;28;20202;-74
2022/03/09 01:37:13;;;;;;;4.13;3.73;;;8.40;1.00;;;;;;5071289;28;20578;-75
2022/03/09 01:39:40;;;;;;;4.03;3.53;;;8.50;1.00;;;;;;5071404;28;20233;-74
2022/03/09 01:42:07;;;;;;;5.80;3.93;;;8.40;1.00;;;;;;5071983;28;20202;-74
2022/03/09 01:44:35;;;;;;;4.40;3.90;;;8.40;1.00;;;;;;5071829;28;20232;-77
2022/03/09 01:47:04;;;;;;;6.10;4.27;;;8.30;1.00;;;;;;5071178;28;20206;-75
2022/03/09 01:49:31;;;;;;;5.03;4.53;;;8.20;99.90;;;;;;5071241;28;20634;-74
2022/03/09 01:52:00;;;;;;;5.53;4.17;;;8.20;99.90;;;;;;5071289;28;20642;-74
2022/03/09 01:54:28;;;;;;;5.03;4.40;;;8.20;99.90;;;;;;5071836;28;20202;-75
2022/03/09 01:56:56;;;;;;;4.67;4.27;;;8.30;99.90;;;;;;5071419;28;20255;-74
2022/03/09 01:59:23;;;;;;;6.20;4.17;;;8.20;99.90;;;;;;5071249;28;20279;-75
2022/03/09 02:01:50;;;;;;;6.53;4.73;;;8.20;99.90;;;;;;5070878;28;20201;-75
2022/03/09 02:04:19;;;;;;;6.13;4.90;;;8.20;99.90;;;;;;5056694;28;20214;-75
2022/03/09 02:06:47;;;;;;;6.43;5.40;;;8.30;99.90;;;;;;5050482;28;20760;-74
2022/03/09 02:11:59;;;;;;;6.30;5.70;;;8.20;99.90;;;;;;5050803;28;20217;-75
2022/03/09 02:14:27;;;;;;;6.27;5.17;;;8.10;99.90;;;;;;5050786;28;20198;-74
2022/03/09 02:16:55;;;;;;;6.73;5.47;;;8.10;99.90;;;;;;5050591;28;20209;-74
2022/03/09 02:19:23;;;;;;;8.50;6.97;;;8.10;99.90;;;;;;5050964;28;20207;-74
2022/03/09 02:21:55;;;;;;;5.33;4.77;;;8.10;99.90;;;;;;5050439;28;20206;-75
2022/03/09 02:24:26;;;;;;;6.73;5.70;;;8.00;99.90;;;;;;5050758;28;20249;-76
2022/03/09 02:26:53;;;;;;;5.37;4.87;;;8.00;99.90;;;;;;5050589;28;20206;-75
2022/03/09 02:29:20;;;;;;;6.13;5.53;;;7.90;99.90;;;;;;5050788;28;20202;-77
2022/03/09 02:31:47;;;;;;;7.67;5.90;;;7.90;99.90;;;;;;5050449;28;20248;-75
2022/03/09 02:34:14;;;;;;;5.30;4.40;;;7.90;99.90;;;;;;5050887;28;20261;-74
2022/03/09 02:36:41;;;;;;;6.47;5.63;;;7.80;99.90;;;;;;5049916;28;20210;-74
2022/03/09 02:39:08;;;;;;;6.83;5.60;;;7.80;1.00;;;;;;5050537;28;20198;-74
2022/03/09 02:41:36;;;;;;;6.30;5.47;;;7.70;1.00;;;;;;5050914;28;20301;-74
2022/03/09 02:44:05;;;;;;;7.00;6.23;;;7.60;1.00;;;;;;5050807;28;20256;-75
2022/03/09 02:46:31;;;;;;;6.23;5.43;;;7.60;1.00;;;;;;5050536;28;20206;-74
2022/03/09 02:48:58;;;;;;;6.97;5.87;;;7.50;1.00;;;;;;5050554;28;20202;-75
2022/03/09 02:51:25;;;;;;;7.30;6.00;;;7.50;1.00;;;;;;5050433;28;20328;-74
2022/03/09 02:53:52;;;;;;;7.60;5.60;;;7.50;99.90;;;;;;5050093;28;20658;-74
2022/03/09 02:56:19;;;;;;;7.47;6.13;;;7.50;99.90;;;;;;5050518;28;20325;-75
2022/03/09 02:58:48;;;;;;;16.27;6.13;;;7.40;99.90;;;;;;5050084;28;20202;-74
2022/03/09 03:01:16;;;;;;;7.20;6.47;;;7.40;99.90;;;;;;5050547;28;20295;-74
2022/03/09 03:03:43;;;;;;;6.63;5.07;;;7.40;1.00;;;;;;5049978;28;20211;-74
2022/03/09 03:06:11;;;;;;;8.20;5.37;;;7.40;1.00;;;;;;5050496;28;20202;-74
2022/03/09 03:08:39;;;;;;;5.40;4.90;;;7.40;1.00;;;;;;5050666;28;20634;-74
2022/03/09 03:11:06;;;;;;;5.73;4.47;;;7.40;1.00;;;;;;5050839;28;20286;-74
2022/03/09 03:13:33;;;;;;;6.90;5.00;;;7.40;1.00;;;;;;5050696;28;20203;-74
2022/03/09 03:16:02;;;;;;;5.37;4.73;;;7.40;1.00;;;;;;5050100;28;20253;-75
2022/03/09 03:18:29;;;;;;;5.03;4.53;;;7.50;1.00;;;;;;5050237;28;20211;-76
2022/03/09 03:20:56;;;;;;;6.47;5.87;;;7.40;1.00;;;;;;5049971;28;20238;-74
2022/03/09 03:23:23;;;;;;;6.53;5.07;;;7.40;99.90;;;;;;5050682;28;20207;-74
2022/03/09 03:25:50;;;;;;;4.93;4.23;;;7.40;99.90;;;;;;5050027;28;20202;-74
2022/03/09 03:28:18;;;;;;;7.00;4.70;;;7.40;99.90;;;;;;5050370;28;20261;-75
2022/03/09 03:30:45;;;;;;;5.73;4.37;;;7.40;99.90;;;;;;5049874;28;20207;-74
2022/03/09 03:33:14;;;;;;;4.80;4.40;;;7.40;99.90;;;;;;5049997;28;20631;-75
2022/03/09 03:35:41;;;;;;;4.90;4.40;;;7.30;99.90;;;;;;5049605;28;20268;-77
2022/03/09 03:38:09;;;;;;;4.13;3.60;;;7.30;99.90;;;;;;5050171;28;20207;-76
2022/03/09 03:40:36;;;;;;;4.30;3.90;;;7.30;99.90;;;;;;5050544;28;20281;-75
2022/03/09 03:43:04;;;;;;;5.00;4.57;;;7.20;98.50;;;;;;5050038;28;20333;-74
2022/03/09 03:45:31;;;;;;;6.63;4.90;;;7.20;99.90;;;;;;5053302;28;20207;-74
2022/03/09 03:47:58;;;;;;;4.90;4.17;;;7.20;99.90;;;;;;5053061;28;20591;-74
2022/03/09 03:50:27;;;;;;;7.93;4.97;;;7.20;99.90;;;;;;5053527;28;20340;-75
2022/03/09 03:52:54;;;;;;;7.53;5.17;;;7.20;99.90;;;;;;5053454;28;20199;-76
2022/03/09 03:55:22;;;;;;;6.17;5.00;;;7.20;99.90;;;;;;5053752;28;20202;-74
2022/03/09 03:57:48;;;;;;;5.27;4.77;;;7.20;99.90;;;;;;5053289;28;20203;-74
2022/03/09 04:00:16;;;;;;;5.40;4.90;;;7.10;99.90;;;;;;5053469;28;20230;-75
2022/03/09 04:02:43;;;;;;;5.17;4.60;;;7.10;99.90;;;;;;5052635;28;20253;-74
2022/03/09 04:05:10;;;;;;;4.93;4.40;;;7.10;99.90;;;;;;5053268;28;20611;-75
2022/03/09 04:07:39;;;;;;;5.63;4.63;;;7.10;99.90;;;;;;5053629;28;20737;-76
2022/03/09 04:10:06;;;;;;;5.40;4.33;;;7.10;99.90;;;;;;5053477;28;20272;-74
2022/03/09 04:12:34;;;;;;;4.90;4.33;;;7.10;1.00;;;;;;5053587;28;20241;-74
2022/03/09 04:15:01;;;;;;;5.00;3.70;;;7.00;1.00;;;;;;5052479;28;20556;-75
2022/03/09 04:17:28;;;;;;;5.43;4.13;;;7.00;99.90;;;;;;5052864;28;20663;-75
2022/03/09 04:19:55;;;;;;;5.70;4.97;;;7.00;99.90;;;;;;5052858;28;20203;-74
2022/03/09 04:22:22;;;;;;;6.83;4.97;;;7.00;99.90;;;;;;5053245;28;20199;-74
2022/03/09 04:24:50;;;;;;;6.63;5.90;;;7.00;99.90;;;;;;5052768;28;20229;-74
2022/03/09 04:27:17;;;;;;;4.80;4.30;;;7.00;99.90;;;;;;5052847;28;20563;-75
2022/03/09 04:29:44;;;;;;;4.57;4.17;;;7.00;99.90;;;;;;5052490;28;20248;-72
2022/03/09 04:32:11;;;;;;;5.50;4.43;;;7.00;99.90;;;;;;5052614;28;20215;-73
2022/03/09 04:34:38;;;;;;;5.67;5.03;;;7.00;99.90;;;;;;5052789;28;20675;-73
2022/03/09 04:37:05;;;;;;;5.33;4.83;;;7.00;99.90;;;;;;5053005;28;20211;-75
2022/03/09 04:39:33;;;;;;;5.77;4.93;;;7.00;99.90;;;;;;5052669;28;20206;-73
2022/03/09 04:42:01;;;;;;;7.07;4.87;;;7.00;99.90;;;;;;5052303;28;20238;-74
2022/03/09 04:44:28;;;;;;;6.13;4.93;;;7.00;76.40;;;;;;5052638;28;20759;-73
2022/03/09 04:46:55;;;;;;;6.53;5.17;;;7.00;25.20;;;;;;5051977;28;20667;-73
2022/03/09 04:49:22;;;;;;;6.67;5.37;;;6.90;8.90;;;;;;5052512;28;20207;-74
2022/03/09 04:51:49;;;;;;;6.07;5.17;;;6.90;16.60;;;;;;5052161;28;20207;-73
2022/03/09 04:54:16;;;;;;;6.20;5.60;;;6.90;16.90;;;;;;5052371;28;20264;-73
2022/03/09 04:56:43;;;;;;;5.97;5.30;;;6.90;35.40;;;;;;5052011;28;20678;-74
2022/03/09 04:59:11;;;;;;;6.13;5.20;;;6.80;74.40;;;;;;5052291;28;20202;-74
2022/03/09 05:01:38;;;;;;;6.20;5.60;;;6.90;99.90;;;;;;5052219;28;20274;-73
2022/03/09 05:04:05;;;;;;;7.13;5.57;;;6.80;99.90;;;;;;5052754;28;20203;-73
2022/03/09 05:06:32;;;;;;;8.27;5.50;;;6.70;99.90;;;;;;5052495;28;20199;-73
2022/03/09 05:08:59;;;;;;;6.87;5.80;;;6.60;99.90;;;;;;5051857;28;20252;-73
2022/03/09 05:11:26;;;;;;;9.37;5.87;;;6.60;99.90;;;;;;5051976;28;20210;-73
2022/03/09 05:13:53;;;;;;;7.03;5.90;;;6.70;1.00;;;;;;5051637;28;20738;-74
2022/03/09 05:16:22;;;;;;;7.17;6.03;;;6.70;1.00;;;;;;5051767;28;20675;-73
2022/03/09 05:18:49;;;;;;;7.73;5.50;;;6.70;1.00;;;;;;5051761;28;20211;-73
2022/03/09 05:21:16;;;;;;;8.23;6.53;;;6.70;1.00;;;;;;5051817;28;20280;-73
2022/03/09 05:23:43;;;;;;;7.87;6.60;;;6.70;1.00;;;;;;5051590;28;20210;-74
2022/03/09 05:26:10;;;;;;;10.43;7.13;;;6.60;1.00;;;;;;5051722;28;20562;-73
2022/03/09 05:28:37;;;;;;;7.57;6.03;;;6.70;1.00;;;;;;5052241;28;20277;-72
2022/03/09 05:31:05;;;;;;;6.73;6.07;;;6.70;1.00;;;;;;5051830;28;20260;-73
2022/03/09 05:33:33;;;;;;;7.83;5.97;;;6.70;1.00;;;;;;5051710;28;20206;-72
2022/03/09 05:36:00;;;;;;;6.77;5.90;;;6.70;1.00;;;;;;5051163;28;20229;-74
2022/03/09 05:38:27;;;;;;;5.83;5.23;;;6.70;1.00;;;;;;5051287;28;20210;-75
2022/03/09 05:40:54;;;;;;;7.80;7.00;;;6.60;99.90;;;;;;5051035;28;20284;-73
2022/03/09 05:43:21;;;;;;;10.00;8.73;;;6.50;99.90;;;;;;5051198;28;20199;-73
2022/03/09 05:45:48;;;;;;;11.83;9.27;;;6.50;99.90;;;;;;5051048;28;20207;-74
2022/03/09 05:48:15;;;;;;;9.57;7.87;;;6.50;1.00;;;;;;5051430;28;20203;-73
2022/03/09 05:50:43;;;;;;;7.83;6.40;;;6.40;1.00;;;;;;5050864;28;20206;-73
2022/03/09 05:53:10;;;;;;;8.30;6.17;;;6.30;1.00;;;;;;5051234;28;20203;-73
2022/03/09 05:55:37;;;;;;;7.97;6.47;;;6.30;1.00;;;;;;5051184;28;20261;-73
2022/03/09 05:58:04;;;;;;;7.20;5.60;;;6.30;1.00;;;;;;5050857;28;20211;-73
2022/03/09 06:00:31;;;;;;;9.13;6.70;;;6.40;99.90;;;;;;5050809;28;20203;-74
2022/03/09 06:02:58;;;;;;;7.60;6.30;;;6.40;99.90;;;;;;5050848;28;20627;-72
2022/03/09 06:05:25;;;;;;;9.40;5.80;;;6.50;99.90;;;;;;5050777;28;20211;-73
2022/03/09 06:07:53;;;;;;;6.87;5.73;;;6.50;99.90;;;;;;5050499;28;20248;-73
2022/03/09 06:10:20;;;;;;;7.13;6.07;;;6.50;99.90;;;;;;5050640;28;20252;-73
2022/03/09 06:12:47;;;;;;;7.83;6.03;;;6.50;99.90;;;;;;5051145;28;20206;-73
2022/03/09 06:15:14;;;;;;;8.43;6.50;;;6.60;99.90;;;;;;5051029;28;20206;-74
2022/03/09 06:17:45;;;;;;;11.70;7.70;;;6.70;99.90;;;;;;5050541;28;20228;-73
2022/03/09 06:20:15;;;;;;;8.07;7.27;;;6.80;99.90;;;;;;5050940;28;20202;-73
2022/03/09 06:22:42;;;;;;;6.90;6.20;;;6.80;1.00;;;;;;5050673;28;20292;-73
2022/03/09 06:25:11;;;;;;;6.90;6.20;;;6.80;1.00;;;;;;5050960;28;20211;-73
2022/03/09 06:27:41;;;;;;;7.70;6.80;;;6.90;1.00;;;;;;5050851;28;20199;-72
2022/03/09 06:30:09;;;;;;;6.50;5.47;;;6.80;1.00;;;;;;5050973;28;20210;-73
2022/03/09 06:32:37;;;;;;;7.20;6.20;;;6.80;99.90;;;;;;5050535;28;20268;-73
2022/03/09 06:35:05;;;;;;;7.63;6.40;;;6.80;1.00;;;;;;5050721;28;20634;-73
2022/03/09 06:37:34;;;;;;;7.90;5.63;;;6.80;99.90;;;;;;5050006;28;20256;-72
2022/03/09 06:40:02;;;;;;;7.10;5.87;;;6.80;1.00;;;;;;5050432;28;20708;-73
2022/03/09 06:42:30;;;;;;;8.40;7.33;;;6.80;1.00;;;;;;5050036;28;20231;-74
2022/03/09 06:44:58;;;;;;;6.83;5.80;;;6.90;1.00;;;;;;5050702;28;20215;-72
2022/03/09 06:47:25;;;;;;;8.83;6.63;;;6.90;1.00;;;;;;5050097;28;20199;-73
2022/03/09 06:49:53;;;;;;;7.73;6.87;;;6.90;1.00;;;;;;5050854;28;20203;-73
2022/03/09 06:52:20;;;;;;;7.73;6.47;;;6.90;1.00;;;;;;5050404;28;20252;-73
2022/03/09 06:54:47;;;;;;;9.13;7.13;;;7.00;1.00;;;;;;5050435;28;20202;-73
2022/03/09 06:57:14;;;;;;;8.43;7.50;;;7.10;1.00;;;;;;5050413;28;20694;-75
2022/03/09 06:59:44;;;;;;;9.13;7.43;;;7.20;1.00;;;;;;5049978;28;20671;-73
2022/03/09 07:02:11;;;;;;;9.57;6.67;;;7.20;1.00;;;;;;5050374;28;20714;-73
2022/03/09 07:04:38;;;;;;;8.10;6.43;;;7.20;99.90;;;;;;5050334;28;20286;-73
2022/03/09 07:07:06;;;;;;;8.47;6.87;;;7.40;99.90;;;;;;5050553;28;20207;-73
2022/03/09 07:09:33;;;;;;;9.83;7.93;;;7.40;99.90;;;;;;5049877;28;20210;-74
2022/03/09 07:12:00;;;;;;;9.73;7.10;;;7.50;99.90;;;;;;5050431;28;20264;-72
2022/03/09 07:14:27;;;;;;;7.80;7.00;;;7.60;99.90;;;;;;5049831;28;20250;-73
2022/03/09 07:16:55;;;;;;;8.07;7.27;;;7.70;1.00;;;;;;5050255;28;20202;-73
2022/03/09 07:19:22;;;;;;;8.90;6.90;;;7.80;1.00;;;;;;5051751;28;20207;-74
2022/03/09 07:21:49;;;;;;;7.17;6.07;;;7.80;1.00;;;;;;5054277;28;20276;-73
2022/03/09 07:24:16;;;;;;;7.73;6.67;;;7.90;1.00;;;;;;5053838;28;20203;-73
2022/03/09 07:26:43;;;;;;;6.83;6.13;;;8.00;99.90;;;;;;5054224;28;20202;-72
2022/03/09 07:29:12;;;;;;;6.13;5.50;;;8.00;99.90;;;;;;5054297;28;20219;-72
2022/03/09 07:31:39;;;;;;;5.60;4.63;;;8.00;25.60;;;;;;5053854;28;20578;-73
2022/03/09 07:34:08;;;;;;;6.13;5.07;;;8.20;42.20;;;;;;5054005;28;20226;-74
2022/03/09 07:36:35;;;;;;;5.87;5.27;;;8.10;1.00;;;;;;5053399;28;20702;-73
2022/03/09 07:39:02;;;;;;;6.07;5.13;;;8.20;1.00;;;;;;5053665;28;20199;-73
2022/03/09 07:41:29;;;;;;;6.00;5.40;;;8.20;1.00;;;;;;5053253;28;20276;-76
2022/03/09 07:43:56;;;;;;;6.97;5.23;;;8.40;1.00;;;;;;5053780;28;20214;-75
2022/03/09 07:46:23;;;;;;;6.17;5.50;;;8.40;1.00;;;;;;5053462;28;20280;-73
2022/03/09 07:48:50;;;;;;;6.13;5.63;;;8.50;1.00;;;;;;5054021;28;20268;-73
2022/03/09 07:51:18;;;;;;;5.77;5.00;;;8.70;1.00;;;;;;5053602;28;20211;-74
2022/03/09 07:53:45;;;;;;;6.13;5.53;;;8.80;1.00;;;;;;5053613;28;20253;-73
2022/03/09 07:56:12;;;;;;;5.90;5.30;;;9.10;1.00;;;;;;5053731;28;20203;-73
2022/03/09 07:58:40;;;;;;;5.37;4.80;;;8.90;1.00;;;;;;5053541;28;20282;-75
2022/03/09 08:01:07;;;;;;;5.63;5.10;;;9.00;1.00;;;;;;5053592;28;20203;-73
2022/03/09 08:03:34;;;;;;;5.87;5.03;;;9.00;1.00;;;;;;5052787;28;20207;-73
2022/03/09 08:06:02;;;;;;;8.77;5.87;;;9.20;1.00;;;;;;5053280;28;20260;-73
2022/03/09 08:08:30;;;;;;;5.20;4.70;;;9.30;1.00;;;;;;5052945;28;20210;-73
2022/03/09 08:10:57;;;;;;;5.20;4.67;;;9.30;1.00;;;;;;5053155;28;20724;-73
2022/03/09 08:13:24;;;;;;;6.37;5.03;;;9.30;99.90;;;;;;5053023;28;20264;-72
2022/03/09 08:15:51;;;;;;;6.80;5.67;;;9.50;99.90;;;;;;5053258;28;20199;-73
2022/03/09 08:18:18;;;;;;;5.37;4.87;;;9.50;99.90;;;;;;5053185;28;20278;-74
2022/03/09 08:20:45;;;;;;;5.77;4.93;;;9.70;99.90;;;;;;5052955;28;20252;-72
2022/03/09 08:23:12;;;;;;;6.47;5.37;;;9.30;99.90;;;;;;5053107;28;20292;-73
2022/03/09 08:25:40;;;;;;;7.43;6.43;;;9.30;99.90;;;;;;5053077;28;20202;-72
2022/03/09 08:28:07;;;;;;;6.87;5.83;;;9.40;1.00;;;;;;5052789;28;20261;-73
2022/03/09 08:30:35;;;;;;;6.43;5.13;;;9.40;99.90;;;;;;5052172;28;21005;-73
2022/03/09 08:33:02;;;;;;;5.67;4.97;;;9.40;99.90;;;;;;5052858;28;20210;-73
2022/03/09 08:35:29;;;;;;;6.93;5.80;;;9.50;99.90;;;;;;5052230;28;20252;-73
2022/03/09 08:37:56;;;;;;;7.83;5.90;;;9.70;99.90;;;;;;5052965;28;20260;-72
2022/03/09 08:40:22;;;;;;;9.20;5.93;;;9.70;99.90;;;;;;5052365;28;20207;-74
2022/03/09 08:42:51;;;;;;;5.70;5.03;;;9.80;99.90;;;;;;5052770;28;20295;-72
2022/03/09 08:45:18;;;;;;;9.43;6.13;;;9.80;99.90;;;;;;5052777;28;20206;-74
2022/03/09 08:47:46;;;;;;;8.97;6.10;;;9.80;99.90;;;;;;5052702;28;20207;-74
2022/03/09 08:50:13;;;;;;;5.37;4.87;;;9.80;99.90;;;;;;5052642;28;20203;-74
2022/03/09 08:52:40;;;;;;;6.20;5.60;;;9.70;99.90;;;;;;5051941;28;21163;-74
2022/03/09 08:55:08;;;;;;;6.50;5.77;;;9.90;99.90;;;;;;5052695;28;20203;-73
2022/03/09 08:57:35;;;;;;;6.93;5.03;;;10.00;99.90;;;;;;5052104;28;20572;-75
2022/03/09 09:00:05;;;;;;;12.00;5.70;;;10.00;99.90;;;;;;5052420;28;20211;-76
2022/03/09 09:02:32;;;;;;;6.90;6.23;;;10.00;99.90;;;;;;5051916;28;20230;-74
2022/03/09 09:05:00;;;;;;;7.97;5.67;;;9.90;99.90;;;;;;5051989;28;20211;-77
2022/03/09 09:07:27;;;;;;;7.20;6.40;;;10.00;99.90;;;;;;5052018;28;20250;-76
2022/03/09 09:09:54;;;;;;;9.23;5.30;;;10.10;99.90;;;;;;5052244;28;20207;-75
2022/03/09 09:12:20;;;;;;;6.13;5.23;;;10.00;99.90;;;;;;5051684;28;20728;-75
2022/03/09 09:14:47;;;;;;;7.73;5.87;;;10.00;99.90;;;;;;5052054;28;20281;-75
2022/03/09 09:17:16;;;;;;;6.73;5.57;;;10.10;99.90;;;;;;5052214;28;20477;-75
2022/03/09 09:19:43;;;;;;;7.13;6.10;;;10.10;99.90;;;;;;5051884;28;20635;-75
2022/03/09 09:22:10;;;;;;;7.70;6.03;;;10.10;99.90;;;;;;5051897;28;20284;-73
2022/03/09 09:24:37;;;;;;;7.47;5.93;;;10.50;99.90;;;;;;5051747;28;20203;-74
2022/03/09 09:27:04;;;;;;;8.43;5.93;;;10.60;99.90;;;;;;5051909;28;20203;-73
2022/03/09 09:29:31;;;;;;;9.57;6.47;;;10.70;99.90;;;;;;5051333;28;20252;-73
2022/03/09 09:31:58;;;;;;;8.00;6.30;;;10.60;99.90;;;;;;5051699;28;20667;-74
2022/03/09 09:34:27;;;;;;;10.80;7.23;;;10.40;99.90;;;;;;5051047;28;20207;-73
2022/03/09 09:36:54;;;;;;;9.50;6.50;;;10.10;99.90;;;;;;5051659;28;20215;-71
2022/03/09 09:39:22;;;;;;;9.70;7.33;;;10.10;99.90;;;;;;5051037;28;20294;-73
2022/03/09 09:41:51;;;;;;;9.93;6.90;;;10.20;99.90;;;;;;5050824;28;20223;-72
2022/03/09 09:44:20;;;;;;;9.47;7.00;;;10.10;99.90;;;;;;5051429;28;20248;-73
2022/03/09 09:46:47;;;;;;;10.97;7.03;;;10.10;99.90;;;;;;5051805;28;20264;-73
2022/03/09 09:49:15;;;;;;;10.80;6.97;;;10.20;99.90;;;;;;5051602;28;20618;-73
2022/03/09 09:51:45;;;;;;;12.17;8.27;;;10.40;99.90;;;;;;5050927;28;20728;-72
2022/03/09 09:54:15;;;;;;;13.43;8.57;;;10.30;99.90;;;;;;5051590;28;20199;-71
2022/03/09 09:56:43;;;;;;;9.93;8.43;;;10.30;99.90;;;;;;5050936;28;20693;-71
2022/03/09 09:59:11;;;;;;;10.17;7.67;;;10.30;99.90;;;;;;5051199;28;20203;-73
2022/03/09 10:01:39;;;;;;;11.13;7.70;;;10.30;99.90;;;;;;5050831;28;20268;-74
2022/03/09 10:04:08;;;;;;;11.53;9.00;;;10.30;99.90;;;;;;5050826;28;20603;-74
2022/03/09 10:06:36;;;;;;;13.47;8.53;;;10.60;99.90;;;;;;5050811;28;20206;-73
2022/03/09 10:09:06;;;;;;;11.40;8.13;;;10.40;99.90;;;;;;5051048;28;20621;-74
2022/03/09 10:11:51;;;;;;;9.00;7.87;;;10.50;99.90;;;;;;5050560;28;20207;-75
2022/03/09 10:14:38;;;;;;;11.70;8.77;;;10.60;99.90;;;;;;5051365;28;20260;-74
2022/03/09 10:17:07;;;;;;;10.20;8.40;;;11.00;99.90;;;;;;5050874;28;20324;-72
2022/03/09 10:19:36;;;;;;;8.10;7.00;;;11.50;99.90;;;;;;5050469;28;20199;-72
2022/03/09 10:22:21;;;;;;;18.10;9.57;;;11.30;99.90;;;;;;5050822;28;20649;-76
2022/03/09 10:24:50;;;;;;;10.67;8.73;;;11.40;99.90;;;;;;5050990;28;20213;-73
2022/03/09 10:27:34;;;;;;;10.63;7.20;;;11.80;99.90;;;;;;5051025;28;20207;-72
2022/03/09 10:30:01;;;;;;;9.43;8.20;;;12.50;99.90;;;;;;5050788;28;20257;-74
2022/03/09 10:32:43;;;;;;;9.93;7.87;;;13.10;99.90;;;;;;5050087;28;20198;-72
2022/03/09 10:35:10;;;;;;;14.73;8.80;;;12.70;99.90;;;;;;5050833;28;20203;-73
2022/03/09 10:37:41;;;;;;;17.00;11.73;;;13.20;99.90;;;;;;5050155;28;20585;-73
2022/03/09 10:40:15;;;;;;;15.00;9.65;;;12.50;99.90;;;;;;5050519;28;20264;-74
2022/03/09 10:42:42;;;;;;;18.08;13.25;;;12.30;99.90;;;;;;5050162;28;20242;-72
2022/03/09 10:45:10;;;;;;;13.00;10.52;;;12.10;99.90;;;;;;5050841;28;20210;-74
2022/03/09 10:47:39;;;;;;;12.38;9.63;;;12.00;99.90;;;;;;5050173;28;20198;-73
2022/03/09 10:50:11;;;;;;;8.80;7.87;;;11.60;99.90;;;;;;5050782;28;20264;-74
2022/03/09 10:52:46;;;;;;;11.25;8.70;;;11.90;99.90;;;;;;5050506;28;20210;-75
2022/03/09 10:55:27;;;;;;;12.30;8.77;;;11.70;99.90;;;;;;5054841;28;20251;-73
2022/03/09 10:58:07;;;;;;;10.30;7.90;;;12.30;99.90;;;;;;5054491;28;20686;-72
2022/03/09 11:00:45;;;;;;;12.33;8.27;;;12.30;99.90;;;;;;5054090;28;20210;-72
2022/03/09 11:03:14;;;;;;;14.32;7.57;;;12.10;99.90;;;;;;5054464;28;20234;-73
2022/03/09 11:05:53;;;;;;;10.80;8.00;;;12.40;99.90;;;;;;5054139;28;20257;-72
2022/03/09 11:08:22;;;;;;;12.15;8.05;;;12.50;99.90;;;;;;5054214;28;20198;-72
2022/03/09 11:10:51;;;;;;;8.17;6.77;;;13.00;99.90;;;;;;5054433;28;20682;-72
2022/03/09 11:13:18;;;;;;;9.73;8.73;;;13.00;99.90;;;;;;5054275;28;20199;-72
2022/03/09 11:15:47;;;;;;;8.20;7.40;;;12.60;99.90;;;;;;5054164;28;20670;-72
2022/03/09 11:18:18;;;;;;;8.68;7.38;;;12.60;99.90;;;;;;5054477;28;20294;-72
2022/03/09 11:20:46;;;;;;;8.27;6.53;;;12.60;99.90;;;;;;5054478;28;20203;-72
2022/03/09 11:23:14;;;;;;;10.53;7.83;;;12.70;99.90;;;;;;5054519;28;20235;-72
2022/03/09 11:25:49;;;;;;;17.43;12.20;;;12.70;99.90;;;;;;5053932;28;20203;-71
2022/03/09 11:28:24;;;;;;;14.60;10.50;;;12.70;99.90;;;;;;5054216;28;20206;-71
2022/03/09 11:30:55;;;;;;;10.73;8.20;;;13.00;99.90;;;;;;5053876;28;20696;-72
2022/03/09 11:33:42;;;;;;;10.80;7.30;;;13.00;99.90;;;;;;5053506;28;20203;-72
2022/03/09 11:36:34;;;;;;;9.38;7.32;;;13.20;99.90;;;;;;5053825;28;20219;-72
2022/03/09 11:39:24;;;;;;;8.77;7.20;;;13.40;99.90;;;;;;5048514;28;20207;-73
2022/03/09 11:42:41;;;;;;;7.70;6.72;;;13.10;99.90;;;;;;5053925;28;20305;-72
2022/03/09 11:45:49;;;;;;;8.48;6.97;;;13.30;99.90;;;;;;5053524;28;20211;-72
2022/03/09 11:48:18;;;;;;;8.10;6.35;;;13.20;99.90;;;;;;5054061;28;20204;-71
2022/03/09 11:51:17;;;;;;;8.93;7.00;;;12.70;99.90;;;;;;5053875;28;20674;-72
2022/03/09 11:53:54;;;;;;;8.18;5.80;;;13.00;99.90;;;;;;5053495;28;20576;-72
2022/03/09 11:56:35;;;;;;;7.03;5.55;;;13.20;99.90;;;;;;5053090;28;20731;-72
2022/03/09 11:59:17;;;;;;;7.38;5.30;;;13.70;99.90;;;;;;5053201;28;20736;-72
2022/03/09 12:02:23;;;;;;;9.40;6.10;;;13.60;99.90;;;;;;5053383;28;20291;-71
2022/03/09 12:04:59;;;;;;;7.93;5.47;;;14.10;99.90;;;;;;5052672;28;20199;-72
2022/03/09 12:08:00;;;;;;;8.10;5.03;;;14.00;99.90;;;;;;5053055;28;20199;-72
2022/03/09 12:10:49;;;;;;;5.20;4.65;;;13.80;99.90;;;;;;5052957;28;20199;-72
2022/03/09 12:13:45;;;;;;;5.40;4.90;;;13.70;99.90;;;;;;5053153;28;20257;-72
2022/03/09 12:16:19;;;;;;;4.88;4.38;;;13.70;99.90;;;;;;5052979;28;20261;-72
2022/03/09 12:19:09;;;;;;;5.68;5.00;;;13.90;99.90;;;;;;5053494;28;20248;-72
2022/03/09 12:22:03;;;;;;;4.68;3.85;;;13.40;99.90;;;;;;5052719;28;20260;-72
2022/03/09 12:24:33;;;;;;;7.35;5.80;;;13.80;99.90;;;;;;5052501;28;20714;-72
2022/03/09 12:27:00;;;;;;;6.75;4.50;;;14.00;99.90;;;;;;5052654;28;20302;-72
2022/03/09 12:29:42;;;;;;;5.72;4.50;;;13.60;99.90;;;;;;5052537;28;20211;-72
2022/03/09 12:32:16;;;;;;;6.90;6.20;;;13.40;99.90;;;;;;5052908;28;20666;-72
2022/03/09 12:34:45;;;;;;;6.68;4.93;;;13.50;99.90;;;;;;5052579;28;20215;-71
2022/03/09 12:37:16;;;;;;;6.25;4.53;;;13.60;99.90;;;;;;5052627;28;20215;-72
2022/03/09 12:39:50;;;;;;;5.57;4.57;;;13.70;99.90;;;;;;5052467;28;20211;-72
2022/03/09 12:42:18;;;;;;;5.97;5.00;;;13.60;99.90;;;;;;5052674;28;20626;-71
2022/03/09 12:44:46;;;;;;;6.20;5.18;;;13.40;99.90;;;;;;5053043;28;20265;-72
2022/03/09 12:47:13;;;;;;;4.65;3.92;;;13.60;99.90;;;;;;5052594;28;20203;-73
2022/03/09 12:49:41;;;;;;;5.00;4.40;;;13.60;99.90;;;;;;5052199;28;20687;-72
2022/03/09 12:52:10;;;;;;;5.30;4.05;;;13.50;99.90;;;;;;5052324;28;20202;-72
2022/03/09 12:54:43;;;;;;;5.05;4.00;;;13.60;99.90;;;;;;5052102;28;20207;-72
2022/03/09 12:57:16;;;;;;;5.25;4.45;;;13.50;99.90;;;;;;5052383;28;20199;-72
2022/03/09 12:59:59;;;;;;;5.30;4.60;;;13.70;99.90;;;;;;5052320;28;20238;-72
2022/03/09 13:02:26;;;;;;;6.70;5.15;;;13.50;99.90;;;;;;5051945;28;20260;-71
2022/03/09 13:04:58;;;;;;;6.22;4.97;;;13.70;99.90;;;;;;5052155;28;20265;-72
2022/03/09 13:07:25;;;;;;;5.20;4.70;;;13.50;99.90;;;;;;5052070;28;20203;-72
2022/03/09 13:10:06;;;;;;;4.97;4.47;;;13.70;99.90;;;;;;5052157;28;20663;-72